createdAt,value
2019-01-04T00:00:37.024Z,103491.59
2019-01-04T00:03:24.912Z,103485.55
2019-01-04T00:06:33.405Z,103470.92
2019-01-04T00:12:28.596Z,103466.66
2019-01-04T00:15:16.694Z,103448.08
2019-01-04T00:18:04.738Z,103454.39
2019-01-04T00:20:53.286Z,103458.94
2019-01-04T00:23:41.362Z,103459.38
2019-01-04T00:26:29.803Z,103445.36
2019-01-04T00:29:17.781Z,103448.79
2019-01-04T00:32:05.891Z,103436.48
2019-01-04T00:34:54.008Z,103440.55
2019-01-04T00:37:42.087Z,103439.66
2019-01-04T00:40:30.149Z,103449.91
2019-01-04T00:43:18.229Z,103452.54
2019-01-04T00:45:47.245Z,103449.26
2019-01-04T00:48:35.341Z,103435.39
2019-01-04T00:51:04.402Z,103433.14
2019-01-04T00:53:52.456Z,103441.05
2019-01-04T00:56:59.647Z,103455.66
2019-01-04T01:03:29.124Z,103460.25
2019-01-04T01:06:36.266Z,103458.80
2019-01-04T01:13:14.158Z,103458.30
2019-01-04T01:16:21.299Z,103452.42
2019-01-04T01:19:28.482Z,103454.67
2019-01-04T01:22:35.745Z,103447.56
2019-01-04T01:25:42.881Z,103449.55
2019-01-04T01:29:01.147Z,103454.39
2019-01-04T01:32:08.333Z,103447.75
2019-01-04T01:35:15.570Z,103441.69
2019-01-04T01:38:22.743Z,103430.91
2019-01-04T01:41:30.184Z,103424.94
2019-01-04T01:44:37.370Z,103428.64
2019-01-04T01:47:15.145Z,103438.16
2019-01-04T01:50:02.472Z,103434.37
2019-01-04T01:52:52.733Z,103429.78
2019-01-04T01:55:40.822Z,103431.59
2019-01-04T01:58:28.897Z,103427.88
2019-01-04T02:01:16.975Z,103421.83
2019-01-04T02:04:05.006Z,103427.53
2019-01-04T02:06:53.086Z,103425.66
2019-01-04T02:09:41.159Z,103413.16
2019-01-04T02:12:29.244Z,103409.95
2019-01-04T02:15:17.294Z,103408.97
2019-01-04T02:18:05.377Z,103389.29
2019-01-04T02:24:05.234Z,103386.33
2019-01-04T02:26:53.314Z,103381.16
2019-01-04T02:32:48.506Z,103374.20
2019-01-04T02:35:36.551Z,103359.66
2019-01-04T02:38:24.641Z,103367.12
2019-01-04T02:41:12.728Z,103361.73
2019-01-04T02:44:00.796Z,103363.33
2019-01-04T02:46:48.877Z,103359.73
2019-01-04T02:49:36.790Z,103354.00
2019-01-04T02:52:24.866Z,103359.23
2019-01-04T02:58:20.054Z,103357.84
2019-01-04T03:04:03.309Z,103351.47
2019-01-04T03:06:32.295Z,103329.50
2019-01-04T03:12:27.507Z,103320.72
2019-01-04T03:18:08.016Z,103306.81
2019-01-04T03:20:56.062Z,103298.22
2019-01-04T03:23:44.161Z,103296.83
2019-01-04T03:26:32.192Z,103294.95
2019-01-04T03:29:20.277Z,103291.66
2019-01-04T03:32:08.354Z,103289.94
2019-01-04T03:34:56.818Z,103281.84
2019-01-04T03:37:44.754Z,103278.68
2019-01-04T03:40:32.838Z,103265.42
2019-01-04T03:43:20.915Z,103268.46
2019-01-04T03:46:09.024Z,103266.86
2019-01-04T03:48:57.097Z,103267.31
2019-01-04T03:51:45.155Z,103264.45
2019-01-04T03:54:33.597Z,103266.97
2019-01-04T03:57:21.633Z,103259.33
2019-01-04T04:00:12.922Z,103236.66
2019-01-04T04:03:00.954Z,103238.03
2019-01-04T04:05:49.038Z,103237.92
2019-01-04T04:08:37.136Z,103242.05
2019-01-04T04:11:25.228Z,103235.05
2019-01-04T04:14:13.173Z,103229.53
2019-01-04T04:19:54.981Z,103218.39
2019-01-04T04:22:43.065Z,103211.72
2019-01-04T04:25:31.119Z,103208.91
2019-01-04T04:28:19.112Z,103197.83
2019-01-04T04:31:07.143Z,103199.79
2019-01-04T04:33:55.436Z,103202.77
2019-01-04T04:36:43.356Z,103189.69
2019-01-04T04:39:12.266Z,103192.16
2019-01-04T04:42:00.613Z,103191.30
2019-01-04T04:44:48.558Z,103193.82
2019-01-04T04:47:36.476Z,103202.42
2019-01-04T04:50:46.104Z,103201.33
2019-01-04T04:53:35.040Z,103202.34
2019-01-04T04:56:23.956Z,103206.19
2019-01-04T04:59:12.322Z,103186.38
2019-01-04T05:02:00.399Z,103191.38
2019-01-04T05:07:55.574Z,103167.23
2019-01-04T05:10:24.450Z,103169.55
2019-01-04T05:13:12.563Z,103169.02
2019-01-04T05:16:00.614Z,103158.34
2019-01-04T05:21:42.595Z,103152.28
2019-01-04T05:24:30.527Z,103141.82
2019-01-04T05:27:18.478Z,103142.07
2019-01-04T05:32:55.903Z,103140.10
2019-01-04T05:35:43.937Z,103137.98
2019-01-04T05:38:31.862Z,103136.05
2019-01-04T05:44:07.991Z,103118.56
2019-01-04T05:46:55.899Z,103102.13
2019-01-04T05:49:43.987Z,103109.70
2019-01-04T05:52:32.297Z,103094.84
2019-01-04T05:55:20.370Z,103098.17
2019-01-04T05:58:08.461Z,103095.75
2019-01-04T06:00:56.417Z,103094.95
2019-01-04T06:03:25.377Z,103104.70
2019-01-04T06:05:54.319Z,103110.16
2019-01-04T06:08:42.484Z,103102.23
2019-01-04T06:11:30.569Z,103106.88
2019-01-04T06:14:18.659Z,103099.30
2019-01-04T06:20:00.608Z,103085.75
2019-01-04T06:22:48.694Z,103082.02
2019-01-04T06:28:44.204Z,103076.01
2019-01-04T06:31:32.298Z,103078.13
2019-01-04T06:34:20.337Z,103081.47
2019-01-04T06:37:08.416Z,103081.02
2019-01-04T06:39:56.449Z,103077.37
2019-01-04T06:42:44.474Z,103074.55
2019-01-04T06:45:32.603Z,103071.81
2019-01-04T06:51:09.978Z,103067.97
2019-01-04T06:53:58.323Z,103063.87
2019-01-04T06:56:46.404Z,103067.22
2019-01-04T06:59:34.717Z,103061.00
2019-01-04T07:02:23.427Z,103058.98
2019-01-04T07:05:11.466Z,103047.91
2019-01-04T07:08:19.970Z,103056.64
2019-01-04T07:14:15.141Z,103054.16
2019-01-04T07:17:03.085Z,103054.56
2019-01-04T07:19:51.183Z,103044.11
2019-01-04T07:22:39.229Z,103054.27
2019-01-04T07:25:27.582Z,103055.53
2019-01-04T07:28:15.662Z,103051.23
2019-01-04T07:31:03.707Z,103058.92
2019-01-04T07:33:51.821Z,103056.30
2019-01-04T07:36:39.785Z,103050.94
2019-01-04T07:39:27.839Z,103054.17
2019-01-04T07:42:16.754Z,103050.53
2019-01-04T07:45:05.117Z,103043.76
2019-01-04T07:47:53.200Z,103041.28
2019-01-04T07:50:41.313Z,103039.66
2019-01-04T07:53:29.268Z,103043.40
2019-01-04T07:56:17.312Z,103027.83
2019-01-04T07:59:05.401Z,103024.54
2019-01-04T08:01:53.441Z,103027.62
2019-01-04T08:04:41.375Z,103032.17
2019-01-04T08:07:29.392Z,103041.92
2019-01-04T08:10:17.352Z,103038.59
2019-01-04T08:13:05.450Z,103044.05
2019-01-04T08:15:53.494Z,103037.33
2019-01-04T08:18:41.581Z,103039.30
2019-01-04T08:21:29.511Z,103035.25
2019-01-04T08:24:17.619Z,103040.56
2019-01-04T08:27:05.527Z,103032.98
2019-01-04T08:29:53.613Z,103037.44
2019-01-04T08:35:48.801Z,103030.16
2019-01-04T08:38:36.855Z,103034.31
2019-01-04T08:41:24.872Z,103025.56
2019-01-04T08:47:37.976Z,103026.63
2019-01-04T08:50:27.970Z,103014.69
2019-01-04T08:59:05.738Z,102998.64
2019-01-04T09:01:53.809Z,103004.61
2019-01-04T09:04:41.895Z,102986.59
2019-01-04T09:07:29.985Z,102982.27
2019-01-04T09:10:17.919Z,102976.36
2019-01-04T09:13:05.849Z,102974.90
2019-01-04T09:15:53.935Z,102975.39
2019-01-04T09:21:32.090Z,102934.57
2019-01-04T09:27:45.151Z,102909.22
2019-01-04T09:39:52.962Z,102922.95
2019-01-04T09:42:41.882Z,102927.99
2019-01-04T09:45:30.347Z,102911.85
2019-01-04T09:48:18.471Z,102905.57
2019-01-04T09:51:06.506Z,102894.02
2019-01-04T09:53:54.582Z,102895.86
2019-01-04T09:56:42.661Z,102886.84
2019-01-04T09:59:11.639Z,102874.69
2019-01-04T10:01:59.532Z,102869.59
2019-01-04T10:04:47.611Z,102863.89
2019-01-04T10:07:16.862Z,102876.08
2019-01-04T10:10:04.960Z,102876.03
2019-01-04T10:12:53.064Z,102867.22
2019-01-04T10:15:41.107Z,102859.06
2019-01-04T10:18:29.209Z,102858.87
2019-01-04T10:21:17.256Z,102849.69
2019-01-04T10:24:05.199Z,102865.36
2019-01-04T10:26:53.274Z,102848.52
2019-01-04T10:29:41.605Z,102847.73
2019-01-04T10:32:10.668Z,102848.96
2019-01-04T10:34:58.707Z,102856.34
2019-01-04T10:37:46.828Z,102855.00
2019-01-04T10:40:34.904Z,102847.57
2019-01-04T10:43:03.922Z,102843.61
2019-01-04T10:45:52.041Z,102841.04
2019-01-04T10:48:40.139Z,102831.07
2019-01-04T10:54:16.426Z,102818.51
2019-01-04T10:57:04.399Z,102812.03
2019-01-04T10:59:52.477Z,102814.75
2019-01-04T11:02:21.514Z,102817.42
2019-01-04T11:05:09.678Z,102820.28
2019-01-04T11:07:57.759Z,102818.03
2019-01-04T11:10:45.813Z,102824.74
2019-01-04T11:16:48.145Z,102814.14
2019-01-04T11:19:36.647Z,102815.10
2019-01-04T11:22:43.785Z,102809.34
2019-01-04T11:25:50.967Z,102802.19
2019-01-04T11:28:58.175Z,102790.03
2019-01-04T11:31:52.093Z,102799.66
2019-01-04T11:34:59.274Z,102800.17
2019-01-04T11:38:06.484Z,102805.87
2019-01-04T11:41:27.539Z,102784.30
2019-01-04T11:44:34.730Z,102778.00
2019-01-04T11:47:41.878Z,102774.58
2019-01-04T11:50:34.666Z,102780.72
2019-01-04T11:53:23.190Z,102789.22
2019-01-04T11:56:11.229Z,102794.62
2019-01-04T11:58:59.271Z,102785.81
2019-01-04T12:01:47.273Z,102772.20
2019-01-04T12:04:35.362Z,102777.50
2019-01-04T12:07:23.372Z,102760.58
2019-01-04T12:10:11.259Z,102749.17
2019-01-04T12:12:59.386Z,102750.38
2019-01-04T12:15:28.451Z,102754.00
2019-01-04T12:17:57.304Z,102741.48
2019-01-04T12:20:45.593Z,102751.33
2019-01-04T12:23:35.161Z,102744.59
2019-01-04T12:26:23.234Z,102737.94
2019-01-04T12:29:11.192Z,102720.20
2019-01-04T12:31:59.276Z,102732.59
2019-01-04T12:34:47.411Z,102730.77
2019-01-04T12:37:35.517Z,102728.25
2019-01-04T12:43:32.214Z,102735.91
2019-01-04T12:46:20.254Z,102734.33
2019-01-04T12:49:08.329Z,102735.98
2019-01-04T12:51:56.397Z,102738.94
2019-01-04T12:54:44.632Z,102726.70
2019-01-04T12:57:32.624Z,102745.47
2019-01-04T13:00:20.742Z,102763.31
2019-01-04T13:03:08.838Z,102762.48
2019-01-04T13:05:56.808Z,102766.34
2019-01-04T13:14:45.797Z,102756.76
2019-01-04T13:20:08.373Z,102742.02
2019-01-04T13:22:56.490Z,102733.01
2019-01-04T13:25:44.495Z,102735.55
2019-01-04T13:28:32.579Z,102732.08
2019-01-04T13:31:20.616Z,102732.96
2019-01-04T13:34:08.694Z,102733.79
2019-01-04T13:36:57.067Z,102742.88
2019-01-04T13:39:45.153Z,102730.95
2019-01-04T13:42:33.234Z,102733.52
2019-01-04T13:45:21.316Z,102734.84
2019-01-04T13:48:09.368Z,102730.40
2019-01-04T13:50:57.311Z,102717.58
2019-01-04T13:53:45.277Z,102725.53
2019-01-04T13:56:33.281Z,102727.16
2019-01-04T13:59:21.359Z,102719.16
2019-01-04T14:02:09.262Z,102717.84
2019-01-04T14:04:57.325Z,102711.03
2019-01-04T14:07:45.356Z,102701.34
2019-01-04T14:10:33.478Z,102692.78
2019-01-04T14:13:21.554Z,102697.55
2019-01-04T14:16:09.582Z,102694.61
2019-01-04T14:18:57.944Z,102708.98
2019-01-04T14:21:46.272Z,102713.28
2019-01-04T14:24:15.573Z,102717.89
2019-01-04T14:27:03.599Z,102719.94
2019-01-04T14:29:51.658Z,102702.27
2019-01-04T14:32:39.691Z,102707.30
2019-01-04T14:35:09.011Z,102705.64
2019-01-04T14:37:37.982Z,102709.06
2019-01-04T14:40:08.699Z,102696.02
2019-01-04T14:45:50.229Z,102686.30
2019-01-04T14:48:38.290Z,102694.33
2019-01-04T14:51:26.390Z,102679.08
2019-01-04T14:53:55.241Z,102684.57
2019-01-04T14:56:43.320Z,102684.08
2019-01-04T14:59:31.351Z,102686.22
2019-01-04T15:02:19.282Z,102684.95
2019-01-04T15:05:07.347Z,102686.22
2019-01-04T15:07:55.424Z,102688.76
2019-01-04T15:10:43.315Z,102678.22
2019-01-04T15:13:31.241Z,102676.05
2019-01-04T15:19:26.390Z,102679.80
2019-01-04T15:21:55.522Z,102681.44
2019-01-04T15:24:43.502Z,102674.58
2019-01-04T15:27:31.530Z,102663.27
2019-01-04T15:30:19.458Z,102671.34
2019-01-04T15:33:07.405Z,102665.41
2019-01-04T15:35:36.328Z,102660.75
2019-01-04T15:38:24.406Z,102653.70
2019-01-04T15:44:06.397Z,102643.01
2019-01-04T15:46:54.489Z,102610.78
2019-01-04T15:49:42.514Z,102645.52
2019-01-04T15:52:30.583Z,102635.38
2019-01-04T15:55:18.610Z,102645.57
2019-01-04T15:58:06.671Z,102642.11
2019-01-04T16:00:54.613Z,102634.55
2019-01-04T16:03:42.941Z,102632.79
2019-01-04T16:06:11.842Z,102637.81
2019-01-04T16:08:59.877Z,102636.30
2019-01-04T16:11:47.954Z,102631.13
2019-01-04T16:14:36.045Z,102645.52
2019-01-04T16:20:12.466Z,102631.13
2019-01-04T16:23:00.522Z,102641.73
2019-01-04T16:25:48.420Z,102640.49
2019-01-04T16:31:29.677Z,102630.25
2019-01-04T16:34:17.599Z,102618.40
2019-01-04T16:37:05.625Z,102633.86
2019-01-04T16:39:53.724Z,102630.47
2019-01-04T16:42:41.793Z,102628.20
2019-01-04T16:45:29.830Z,102631.09
2019-01-04T16:48:38.338Z,102621.77
2019-01-04T16:51:46.808Z,102625.09
2019-01-04T16:54:16.088Z,102620.80
2019-01-04T16:57:04.129Z,102639.74
2019-01-04T16:59:33.114Z,102636.80
2019-01-04T17:02:21.169Z,102631.77
2019-01-04T17:05:09.113Z,102624.92
2019-01-04T17:07:57.450Z,102630.48
2019-01-04T17:10:45.395Z,102633.42
2019-01-04T17:13:33.522Z,102627.52
2019-01-04T17:16:21.609Z,102630.98
2019-01-04T17:19:09.496Z,102627.58
2019-01-04T17:21:57.558Z,102629.72
2019-01-04T17:24:45.633Z,102628.82
2019-01-04T17:27:33.678Z,102614.80
2019-01-04T17:33:15.782Z,102630.30
2019-01-04T17:36:03.797Z,102635.09
2019-01-04T17:38:52.212Z,102628.23
2019-01-04T17:41:40.293Z,102636.36
2019-01-04T17:44:28.362Z,102630.84
2019-01-04T17:47:16.437Z,102634.26
2019-01-04T17:50:04.513Z,102625.48
2019-01-04T17:52:52.543Z,102625.91
2019-01-04T17:55:40.609Z,102610.28
2019-01-04T17:58:28.689Z,102606.89
2019-01-04T18:04:23.847Z,102594.20
2019-01-04T18:10:00.187Z,102594.25
2019-01-04T18:12:48.216Z,102593.25
2019-01-04T18:15:36.248Z,102590.39
2019-01-04T18:18:24.361Z,102590.88
2019-01-04T18:21:12.372Z,102592.20
2019-01-04T18:24:00.443Z,102587.56
2019-01-04T18:26:29.385Z,102581.66
2019-01-04T18:29:17.629Z,102569.05
2019-01-04T18:32:05.900Z,102576.63
2019-01-04T18:34:54.013Z,102569.45
2019-01-04T18:37:42.146Z,102584.60
2019-01-04T18:40:30.578Z,102572.40
2019-01-04T18:43:18.654Z,102570.73
2019-01-04T18:46:06.743Z,102571.25
2019-01-04T18:48:54.922Z,102554.40
2019-01-04T18:51:43.030Z,102557.31
2019-01-04T18:54:30.936Z,102553.05
2019-01-04T18:57:18.864Z,102555.53
2019-01-04T19:00:06.921Z,102555.88
2019-01-04T19:02:55.008Z,102534.71
2019-01-04T19:08:50.157Z,102543.57
2019-01-04T19:11:38.066Z,102538.04
2019-01-04T19:14:26.230Z,102538.00
2019-01-04T19:17:14.259Z,102528.68
2019-01-04T19:20:02.243Z,102536.66
2019-01-04T19:22:50.129Z,102534.02
2019-01-04T19:25:38.217Z,102523.89
2019-01-04T19:28:26.269Z,102516.68
2019-01-04T19:31:14.362Z,102515.02
2019-01-04T19:34:02.398Z,102510.44
2019-01-04T19:36:50.428Z,102514.20
2019-01-04T19:39:38.513Z,102502.75
2019-01-04T19:42:26.550Z,102495.09
2019-01-04T19:44:55.497Z,102502.25
2019-01-04T19:47:43.584Z,102497.67
2019-01-04T19:50:31.764Z,102492.16
2019-01-04T19:53:19.849Z,102492.64
2019-01-04T19:56:07.919Z,102487.70
2019-01-04T19:58:36.776Z,102494.00
2019-01-04T20:01:45.281Z,102497.41
2019-01-04T20:04:33.251Z,102497.80
2019-01-04T20:08:02.184Z,102501.17
2019-01-04T20:11:28.326Z,102487.22
2019-01-04T20:14:54.548Z,102486.80
2019-01-04T20:18:02.646Z,102492.77
2019-01-04T20:20:50.768Z,102484.33
2019-01-04T20:23:57.813Z,102488.51
2019-01-04T20:27:04.863Z,102481.35
2019-01-04T20:30:12.234Z,102478.84
2019-01-04T20:33:00.262Z,102476.31
2019-01-04T20:35:48.089Z,102472.03
2019-01-04T20:38:36.017Z,102474.67
2019-01-04T20:41:43.107Z,102469.14
2019-01-04T20:44:50.866Z,102468.64
2019-01-04T20:47:38.741Z,102463.59
2019-01-04T20:50:26.707Z,102465.73
2019-01-04T20:53:33.749Z,102458.92
2019-01-04T20:56:40.739Z,102452.20
2019-01-04T20:59:28.694Z,102460.19
2019-01-04T21:02:35.683Z,102450.05
2019-01-04T21:05:40.016Z,102445.75
2019-01-04T21:08:47.028Z,102444.53
2019-01-04T21:11:54.364Z,102429.31
2019-01-04T21:15:01.398Z,102428.53
2019-01-04T21:17:49.369Z,102415.31
2019-01-04T21:25:56.720Z,102414.48
2019-01-04T21:31:57.397Z,102413.73
2019-01-04T21:34:45.612Z,102420.91
2019-01-04T21:37:52.645Z,102410.75
2019-01-04T21:40:40.886Z,102404.84
2019-01-04T21:43:47.930Z,102401.92
2019-01-04T21:46:54.923Z,102395.60
2019-01-04T21:49:42.857Z,102390.96
2019-01-04T21:52:49.853Z,102395.19
2019-01-04T21:55:37.709Z,102379.64
2019-01-04T21:58:25.706Z,102369.08
2019-01-04T22:01:32.740Z,102365.22
2019-01-04T22:07:47.790Z,102372.41
2019-01-04T22:10:35.700Z,102358.08
2019-01-04T22:13:42.731Z,102360.98
2019-01-04T22:16:49.787Z,102358.54
2019-01-04T22:19:37.683Z,102338.66
2019-01-04T22:22:25.611Z,102348.42
2019-01-04T22:25:13.606Z,102354.30
2019-01-04T22:28:20.973Z,102341.59
2019-01-04T22:31:28.006Z,102366.63
2019-01-04T22:34:35.049Z,102334.87
2019-01-04T22:37:23.055Z,102345.52
2019-01-04T22:40:10.926Z,102326.44
2019-01-04T22:42:58.815Z,102333.23
2019-01-04T22:46:05.848Z,102348.89
2019-01-04T22:48:53.665Z,102343.84
2019-01-04T22:51:41.645Z,102345.59
2019-01-04T22:54:48.638Z,102331.64
2019-01-04T22:57:55.666Z,102322.78
2019-01-04T23:01:06.261Z,102294.86
2019-01-04T23:04:13.250Z,102280.91
2019-01-04T23:07:20.283Z,102286.41
2019-01-04T23:10:27.320Z,102299.95
2019-01-04T23:13:34.307Z,102304.17
2019-01-04T23:16:14.979Z,102318.55
2019-01-04T23:19:02.918Z,102312.25
2019-01-04T23:22:11.213Z,102308.44
2019-01-04T23:25:18.264Z,102310.17
2019-01-04T23:28:06.198Z,102302.53
2019-01-04T23:30:54.149Z,102292.84
2019-01-04T23:34:01.185Z,102301.69
2019-01-04T23:37:08.173Z,102297.03
2019-01-04T23:39:56.568Z,102286.41
2019-01-04T23:42:44.456Z,102291.92
2019-01-04T23:45:32.456Z,102293.56
2019-01-04T23:48:20.781Z,102279.15
2019-01-04T23:51:08.749Z,102280.41
2019-01-04T23:54:15.788Z,102282.45
2019-01-04T23:57:03.772Z,102280.77
